Ventura, California
Current Conditions -  °F | °C
As of 9:51 AM on Friday 19 Dec 2014 (Local Time) from KOXR Reporting Station
Clear Clear  
Wind Chill: 59°   Ceiling: Unl
Heat Index: 59°   Visibility: 10mi
Dew Point: 44°   Wind: 7mph
Humidity: 58%   Direction: 60°ENE
Pressure: 30.24"   Gusts: NA
Location:  34.28°N, 119.29°W
Report Text: KOXR 191751Z 06006KT 10SM CLR 15/07 A3024 RMK AO2 SLP239 T01500067 10150 20089 51010
Loading
Personal Weather Stations






























Interactive Weather Map New forecast layout! Learn more

10-Day Weather Forecast

Advertisements
Track Severe Weather on mobile